createdAt,value
2019-04-27T03:01:04.152Z,4.60
2019-04-27T03:03:32.535Z,4.80
2019-04-27T03:06:00.892Z,4.80
2019-04-27T03:08:29.501Z,4.90
2019-04-27T03:10:57.842Z,4.90
2019-04-27T03:13:30.572Z,5.00
2019-04-27T03:16:15.172Z,5.00
2019-04-27T03:18:45.134Z,5.00
2019-04-27T03:21:15.119Z,5.10
2019-04-27T03:23:43.508Z,5.20
2019-04-27T03:26:22.258Z,5.20
2019-04-27T03:28:50.648Z,5.30
2019-04-27T03:31:21.602Z,5.40
2019-04-27T03:33:52.804Z,5.60
2019-04-27T03:36:21.515Z,5.70
2019-04-27T03:38:49.831Z,5.70
2019-04-27T03:41:19.303Z,5.90
2019-04-27T03:43:49.925Z,5.90
2019-04-27T03:46:20.181Z,6.10
2019-04-27T03:48:49.744Z,6.30
2019-04-27T03:51:22.216Z,6.20
2019-04-27T03:53:52.259Z,5.90
2019-04-27T03:56:30.418Z,6.10
2019-04-27T03:59:00.015Z,6.30
2019-04-27T04:01:30.223Z,6.10
2019-04-27T04:03:59.880Z,6.10
2019-04-27T04:06:29.511Z,6.40
2019-04-27T04:09:00.248Z,6.40
2019-04-27T04:11:32.696Z,6.60
2019-04-27T04:14:02.740Z,6.30
2019-04-27T04:16:32.757Z,6.30
2019-04-27T04:19:02.793Z,6.50
2019-04-27T04:21:31.156Z,6.50
2019-04-27T04:24:00.935Z,6.60
2019-04-27T04:26:32.676Z,6.70
2019-04-27T04:29:00.040Z,6.60
2019-04-27T04:31:32.644Z,6.90
2019-04-27T04:33:59.762Z,6.70
2019-04-27T04:36:30.145Z,6.50
2019-04-27T04:39:00.517Z,6.60
2019-04-27T04:41:32.895Z,6.90
2019-04-27T04:44:20.247Z,6.80
2019-04-27T04:46:50.424Z,7.10
2019-04-27T04:49:19.415Z,7.10
2019-04-27T04:51:50.174Z,7.00
2019-04-27T04:54:19.809Z,7.40
2019-04-27T04:56:49.378Z,7.20
2019-04-27T04:59:19.946Z,7.30
2019-04-27T05:01:49.846Z,7.20
2019-04-27T05:04:19.290Z,7.20
2019-04-27T05:06:49.238Z,7.60
2019-04-27T05:09:19.380Z,7.40
2019-04-27T05:11:48.658Z,7.30
2019-04-27T05:14:17.174Z,7.40
2019-04-27T05:16:45.554Z,7.40
2019-04-27T05:19:13.940Z,7.60
2019-04-27T05:21:42.645Z,7.70
2019-04-27T05:24:11.022Z,7.80
2019-04-27T05:26:39.832Z,8.00
2019-04-27T05:29:09.116Z,8.30
2019-04-27T05:31:38.792Z,8.10
2019-04-27T05:34:07.302Z,7.80
2019-04-27T05:36:35.684Z,7.60
2019-04-27T05:39:06.108Z,7.60
2019-04-27T05:41:37.650Z,7.70
2019-04-27T05:44:07.736Z,7.90
2019-04-27T05:46:39.503Z,8.00
2019-04-27T05:49:09.655Z,7.60
2019-04-27T05:51:40.125Z,7.80
2019-04-27T05:54:09.070Z,7.80
2019-04-27T05:56:39.020Z,7.90
2019-04-27T05:59:09.115Z,8.00
2019-04-27T06:01:38.964Z,8.00
2019-04-27T06:04:09.021Z,7.90
2019-04-27T06:06:37.490Z,7.80
2019-04-27T06:09:06.720Z,8.30
2019-04-27T06:11:35.080Z,8.20
2019-04-27T06:14:03.467Z,7.90
2019-04-27T06:16:31.853Z,7.80
2019-04-27T06:19:00.237Z,7.90
2019-04-27T06:21:29.494Z,7.80
2019-04-27T06:23:58.867Z,8.10
2019-04-27T06:26:27.358Z,7.90
2019-04-27T06:28:56.034Z,8.10
2019-04-27T06:31:24.483Z,7.90
2019-04-27T06:33:52.868Z,8.30
2019-04-27T06:36:21.245Z,8.60
2019-04-27T06:38:49.627Z,8.10
2019-04-27T06:41:18.949Z,8.00
2019-04-27T06:43:47.384Z,8.10
2019-04-27T06:46:15.738Z,8.20
2019-04-27T06:48:44.118Z,8.20
2019-04-27T06:51:12.481Z,8.30
2019-04-27T06:53:40.874Z,8.60
2019-04-27T06:56:09.251Z,8.40
2019-04-27T06:58:40.536Z,8.40
2019-04-27T07:01:09.490Z,8.60
2019-04-27T07:03:39.410Z,8.70
2019-04-27T07:06:08.893Z,8.90
2019-04-27T07:08:37.288Z,8.60
2019-04-27T07:11:05.754Z,8.70
2019-04-27T07:13:34.082Z,8.70
2019-04-27T07:16:02.470Z,8.90
2019-04-27T07:18:30.830Z,8.90
2019-04-27T07:20:59.238Z,8.90
2019-04-27T07:23:29.243Z,9.10
2019-04-27T07:25:57.693Z,9.20
2019-04-27T07:28:26.053Z,9.50
2019-04-27T07:30:54.435Z,9.20
2019-04-27T07:33:22.800Z,9.30
2019-04-27T07:35:51.188Z,9.60
2019-04-27T07:38:19.539Z,9.30
2019-04-27T07:40:48.855Z,9.60
2019-04-27T07:43:29.287Z,9.60
2019-04-27T07:45:59.053Z,9.60
2019-04-27T07:48:28.526Z,9.50
2019-04-27T07:50:57.047Z,9.40
2019-04-27T07:53:25.401Z,9.40
2019-04-27T07:55:53.758Z,9.40
2019-04-27T07:58:22.392Z,9.30
2019-04-27T08:00:51.098Z,9.40
2019-04-27T08:03:19.662Z,9.30
2019-04-27T08:05:49.122Z,9.20
2019-04-27T08:08:18.997Z,9.20
2019-04-27T08:10:48.419Z,9.40
2019-04-27T08:13:17.465Z,9.80
2019-04-27T08:15:45.822Z,9.70
2019-04-27T08:18:14.222Z,9.60
2019-04-27T08:20:42.593Z,9.70
2019-04-27T08:23:10.976Z,9.90
2019-04-27T08:25:39.391Z,10.00
2019-04-27T08:28:18.809Z,9.80
2019-04-27T08:30:48.982Z,9.50
2019-04-27T08:33:18.957Z,9.60
2019-04-27T08:35:48.938Z,9.50
2019-04-27T08:38:19.022Z,9.30
2019-04-27T08:40:49.309Z,9.40
2019-04-27T08:43:18.997Z,9.20
2019-04-27T08:45:48.823Z,9.30
2019-04-27T08:48:25.150Z,9.60
2019-04-27T08:50:48.657Z,9.80
2019-04-27T09:02:09.753Z,9.70
2019-04-27T09:04:39.415Z,9.60
2019-04-27T09:07:25.556Z,9.20
2019-04-27T09:09:59.644Z,9.80
2019-04-27T09:12:29.646Z,9.20
2019-04-27T09:14:59.668Z,8.80
2019-04-27T09:17:32.631Z,7.90
2019-04-27T09:20:05.426Z,7.50
2019-04-27T09:22:33.785Z,8.00
2019-04-27T09:25:02.160Z,6.90
2019-04-27T09:27:30.510Z,6.70
2019-04-27T09:29:59.143Z,6.40
2019-04-27T09:32:28.920Z,6.90
2019-04-27T09:34:57.331Z,7.10
2019-04-27T09:37:27.309Z,6.20
2019-04-27T09:39:56.154Z,6.70
2019-04-27T09:42:24.540Z,6.70
2019-04-27T09:44:52.922Z,6.90
2019-04-27T09:47:21.279Z,7.30
2019-04-27T09:49:49.665Z,6.70
2019-04-27T09:52:24.320Z,7.90
2019-04-27T09:54:48.226Z,8.20
2019-04-27T09:57:16.618Z,7.00
2019-04-27T09:59:46.027Z,6.90
2019-04-27T10:02:16.318Z,8.40
2019-04-27T10:04:46.060Z,7.90
2019-04-27T10:07:16.133Z,8.10
2019-04-27T10:09:45.507Z,8.60
2019-04-27T10:12:15.886Z,8.40
2019-04-27T10:14:45.435Z,8.80
2019-04-27T10:17:14.257Z,7.40
2019-04-27T10:19:42.643Z,8.10
2019-04-27T10:22:11.024Z,7.20
2019-04-27T10:24:39.349Z,8.90
2019-04-27T10:27:08.094Z,7.90
2019-04-27T10:29:36.497Z,8.40
2019-04-27T10:32:06.221Z,8.40
2019-04-27T10:34:34.735Z,7.90
2019-04-27T10:37:03.118Z,7.50
2019-04-27T10:39:31.474Z,7.20
2019-04-27T10:41:59.864Z,7.50
2019-04-27T10:44:28.218Z,8.00
2019-04-27T10:46:56.603Z,8.40
2019-04-27T10:49:24.964Z,8.50
2019-04-27T10:51:53.346Z,8.50
2019-04-27T10:54:21.777Z,9.70
2019-04-27T10:56:50.153Z,8.60
2019-04-27T10:59:18.507Z,8.10
2019-04-27T11:01:46.891Z,8.50
2019-04-27T11:04:22.574Z,9.50
2019-04-27T11:06:52.595Z,8.60
2019-04-27T11:09:20.950Z,7.30
2019-04-27T11:11:49.326Z,7.80
2019-04-27T11:14:17.688Z,6.80
2019-04-27T11:16:46.125Z,6.50
2019-04-27T11:19:16.698Z,5.30
2019-04-27T11:21:44.451Z,4.50
2019-04-27T11:24:12.797Z,4.50
2019-04-27T11:26:41.121Z,4.70
2019-04-27T11:29:09.483Z,4.80
2019-04-27T11:31:37.863Z,5.00
2019-04-27T11:34:06.681Z,4.80
2019-04-27T11:36:36.803Z,4.70
2019-04-27T11:39:08.448Z,6.40
2019-04-27T11:41:36.801Z,7.10
2019-04-27T11:44:05.186Z,7.70
2019-04-27T11:46:33.552Z,7.80
2019-04-27T11:49:01.936Z,7.10
2019-04-27T11:51:30.296Z,7.30
2019-04-27T11:53:58.684Z,7.40
2019-04-27T11:56:27.606Z,7.50
2019-04-27T11:58:57.075Z,8.00
2019-04-27T12:01:26.993Z,8.20
2019-04-27T12:03:55.729Z,8.10
2019-04-27T12:06:25.742Z,8.00
2019-04-27T12:08:54.216Z,8.50
2019-04-27T12:11:22.729Z,8.20
2019-04-27T12:13:51.111Z,8.80
2019-04-27T12:16:19.476Z,8.60
2019-04-27T12:18:49.214Z,8.80
2019-04-27T12:21:17.659Z,9.40
2019-04-27T12:23:47.233Z,9.70
2019-04-27T12:26:20.741Z,9.20
2019-04-27T12:28:50.740Z,8.30
2019-04-27T12:31:20.735Z,8.00
2019-04-27T12:33:49.122Z,7.60
2019-04-27T12:36:17.488Z,8.10
2019-04-27T12:38:46.675Z,8.80
2019-04-27T12:41:15.174Z,8.10
2019-04-27T12:43:43.530Z,8.00
2019-04-27T12:46:11.910Z,9.00
2019-04-27T12:48:40.267Z,8.90
2019-04-27T12:51:08.651Z,8.50
2019-04-27T12:53:52.178Z,8.60
2019-04-27T12:56:19.964Z,9.40
2019-04-27T12:58:52.920Z,9.20
2019-04-27T13:01:22.948Z,9.40
2019-04-27T13:03:51.307Z,9.50
2019-04-27T13:06:19.690Z,9.80
2019-04-27T13:08:48.151Z,9.60
2019-04-27T13:11:16.540Z,10.00
2019-04-27T13:13:45.571Z,10.30
2019-04-27T13:16:13.961Z,10.60
2019-04-27T13:18:42.315Z,9.20
2019-04-27T13:21:10.699Z,9.90
2019-04-27T13:23:39.065Z,11.10
2019-04-27T13:26:07.447Z,10.20
2019-04-27T13:28:35.932Z,10.30
2019-04-27T13:31:06.613Z,10.00
2019-04-27T13:33:36.361Z,10.30
2019-04-27T13:36:07.264Z,10.40
2019-04-27T13:38:36.451Z,9.40
2019-04-27T13:41:06.290Z,8.80
2019-04-27T13:43:36.363Z,8.90
2019-04-27T13:46:08.143Z,9.10
2019-04-27T13:48:54.030Z,7.90
2019-04-27T13:51:38.889Z,8.10
2019-04-27T13:54:18.505Z,8.00
2019-04-27T13:56:37.274Z,9.10
2019-04-27T13:59:07.684Z,7.70
2019-04-27T14:01:35.658Z,7.90
2019-04-27T14:04:04.839Z,8.10
2019-04-27T14:06:34.064Z,7.40
2019-04-27T14:09:02.431Z,8.40
2019-04-27T14:11:30.811Z,8.60
2019-04-27T14:13:59.170Z,8.70
2019-04-27T14:16:29.008Z,9.60
2019-04-27T14:18:59.245Z,9.30
2019-04-27T14:21:27.407Z,9.60
2019-04-27T14:23:55.883Z,9.70
2019-04-27T14:26:24.280Z,10.00
2019-04-27T14:28:52.669Z,10.40
2019-04-27T14:31:21.026Z,10.40
2019-04-27T14:33:49.460Z,9.70
2019-04-27T14:36:18.371Z,9.00
2019-04-27T14:38:47.949Z,7.70
2019-04-27T14:41:16.790Z,7.70
2019-04-27T14:43:45.170Z,8.50
2019-04-27T14:46:16.538Z,8.20
2019-04-27T14:48:44.898Z,8.00
2019-04-27T14:51:13.327Z,9.70
2019-04-27T14:53:41.709Z,9.70
2019-04-27T14:56:10.078Z,8.60
2019-04-27T14:58:40.150Z,9.30
2019-04-27T15:01:08.592Z,9.60
2019-04-27T15:03:36.987Z,10.80
2019-04-27T15:06:05.347Z,10.30
2019-04-27T15:08:34.114Z,9.80
2019-04-27T15:11:04.200Z,10.20
2019-04-27T15:13:32.528Z,10.80
2019-04-27T15:16:02.672Z,9.60
2019-04-27T15:18:34.702Z,12.20
2019-04-27T15:21:03.759Z,11.00
2019-04-27T15:23:32.118Z,8.90
2019-04-27T15:26:00.507Z,8.30
2019-04-27T15:28:32.081Z,7.30
2019-04-27T15:31:02.090Z,7.10
2019-04-27T15:33:32.135Z,6.30
2019-04-27T15:36:20.974Z,6.50
2019-04-27T15:38:51.323Z,6.80
2019-04-27T15:41:20.507Z,7.20
2019-04-27T15:43:48.887Z,9.80
2019-04-27T15:46:18.434Z,11.20
2019-04-27T15:48:48.661Z,14.40
2019-04-27T15:51:20.857Z,14.70
2019-04-27T15:53:50.821Z,15.00
2019-04-27T15:56:18.118Z,14.20
2019-04-27T15:58:48.209Z,14.20
2019-04-27T16:01:18.031Z,13.30
2019-04-27T16:03:48.128Z,11.10
2019-04-27T16:06:16.627Z,8.70
2019-04-27T16:08:46.919Z,8.40
2019-04-27T16:11:16.508Z,7.50
2019-04-27T16:13:45.019Z,7.70
2019-04-27T16:16:13.403Z,8.30
2019-04-27T16:18:41.755Z,8.10
2019-04-27T16:21:10.898Z,8.00
2019-04-27T16:23:42.764Z,8.40
2019-04-27T16:26:11.110Z,8.90
2019-04-27T16:28:42.969Z,7.70
2019-04-27T16:31:09.530Z,8.10
2019-04-27T16:33:39.089Z,7.80
2019-04-27T16:36:09.252Z,8.10
2019-04-27T16:38:44.885Z,9.00
2019-04-27T16:41:13.265Z,8.70
2019-04-27T16:43:41.620Z,12.00
2019-04-27T16:46:10.079Z,13.10
2019-04-27T16:48:39.032Z,12.50
2019-04-27T16:51:08.723Z,13.40
2019-04-27T16:53:41.031Z,12.30
2019-04-27T16:56:14.530Z,12.20
2019-04-27T16:58:39.444Z,12.30
2019-04-27T17:01:10.720Z,10.70
2019-04-27T17:03:41.454Z,10.40
2019-04-27T17:06:09.514Z,8.60
2019-04-27T17:08:39.336Z,9.00
2019-04-27T17:11:11.519Z,9.90
2019-04-27T17:13:39.485Z,8.20
2019-04-27T17:16:24.667Z,7.80
2019-04-27T17:19:06.102Z,8.00
2019-04-27T17:21:38.729Z,8.30
2019-04-27T17:24:04.605Z,8.50
2019-04-27T17:26:35.495Z,9.40
2019-04-27T17:29:16.126Z,9.20
2019-04-27T17:31:42.084Z,9.30
2019-04-27T17:34:10.439Z,9.30
2019-04-27T17:36:40.293Z,8.50
2019-04-27T17:39:09.830Z,8.60
2019-04-27T17:41:42.082Z,9.00
2019-04-27T17:44:08.564Z,9.60
2019-04-27T17:46:38.544Z,9.50
2019-04-27T17:49:08.440Z,7.90
2019-04-27T17:51:42.917Z,7.40
2019-04-27T17:54:07.938Z,8.40
2019-04-27T17:56:48.333Z,7.40
2019-04-27T17:59:10.242Z,7.50
2019-04-27T18:01:38.771Z,7.20
2019-04-27T18:04:10.403Z,7.00
2019-04-27T18:06:38.856Z,7.10
2019-04-27T18:09:09.139Z,7.40
2019-04-27T18:11:38.492Z,7.40
2019-04-27T18:14:09.401Z,7.30
2019-04-27T18:16:38.040Z,7.80
2019-04-27T18:19:11.488Z,7.20
2019-04-27T18:21:39.771Z,7.00
2019-04-27T18:24:15.508Z,6.60
2019-04-27T18:26:56.421Z,6.60
2019-04-27T18:29:22.843Z,7.10
2019-04-27T18:31:54.568Z,7.30
2019-04-27T18:34:21.350Z,6.70
2019-04-27T18:36:49.707Z,7.20
2019-04-27T18:39:18.303Z,5.70
2019-04-27T18:41:50.542Z,6.10
2019-04-27T18:44:16.678Z,6.00
2019-04-27T18:46:45.029Z,5.90
2019-04-27T18:49:27.250Z,5.90
2019-04-27T18:52:04.298Z,5.80
2019-04-27T18:54:28.848Z,5.10
2019-04-27T18:57:04.122Z,5.10
2019-04-27T18:59:28.794Z,4.80
2019-04-27T19:01:58.031Z,4.80
2019-04-27T19:04:28.065Z,4.90
2019-04-27T19:06:58.522Z,5.80
2019-04-27T19:09:26.459Z,5.30
2019-04-27T19:11:56.678Z,5.30
2019-04-27T19:14:24.842Z,5.40
2019-04-27T19:16:53.222Z,5.30
2019-04-27T19:19:21.589Z,5.10
2019-04-27T19:21:49.968Z,4.90
2019-04-27T19:24:19.193Z,5.30
2019-04-27T19:27:01.107Z,5.40
2019-04-27T19:29:31.102Z,5.60
2019-04-27T19:32:01.118Z,5.30
2019-04-27T19:34:29.466Z,5.20
2019-04-27T19:36:59.198Z,4.80
2019-04-27T19:39:28.614Z,4.70
2019-04-27T19:42:01.404Z,4.70
2019-04-27T19:44:28.990Z,5.00
2019-04-27T19:46:57.199Z,4.90
2019-04-27T19:49:25.860Z,4.80
2019-04-27T19:51:54.234Z,5.20
2019-04-27T19:54:22.665Z,5.20
2019-04-27T19:56:51.050Z,5.40
2019-04-27T19:59:21.051Z,5.40
2019-04-27T20:01:51.092Z,5.90
2019-04-27T20:04:21.100Z,6.40
2019-04-27T20:06:49.475Z,5.60
2019-04-27T20:09:19.475Z,5.40
2019-04-27T20:11:47.866Z,5.50
2019-04-27T20:14:16.226Z,5.20
2019-04-27T20:16:44.589Z,5.50
2019-04-27T20:19:12.976Z,5.60
2019-04-27T20:21:41.351Z,5.60
2019-04-27T20:24:11.681Z,5.30
2019-04-27T20:26:39.739Z,5.10
2019-04-27T20:29:08.123Z,5.20
2019-04-27T20:31:36.480Z,6.40
2019-04-27T20:34:04.872Z,6.00
2019-04-27T20:36:33.260Z,6.30
2019-04-27T20:39:01.647Z,6.30
2019-04-27T20:41:31.810Z,6.40
2019-04-27T20:44:02.197Z,6.20
2019-04-27T20:46:31.178Z,6.10
2019-04-27T20:49:01.238Z,6.30
2019-04-27T20:51:51.031Z,6.10
2019-04-27T20:54:21.053Z,6.10
2019-04-27T20:56:51.514Z,5.60
2019-04-27T20:59:19.430Z,6.50
2019-04-27T21:01:47.795Z,5.90
2019-04-27T21:04:17.807Z,6.30
2019-04-27T21:06:47.812Z,5.60
2019-04-27T21:09:17.558Z,6.50
2019-04-27T21:11:46.892Z,6.20
2019-04-27T21:14:15.343Z,6.40
2019-04-27T21:16:43.847Z,6.20
2019-04-27T21:19:12.223Z,6.50
2019-04-27T21:21:42.708Z,5.80
2019-04-27T21:24:10.883Z,6.00
2019-04-27T21:26:39.239Z,6.30
2019-04-27T21:29:07.623Z,5.60
2019-04-27T21:31:36.056Z,5.80
2019-04-27T21:34:04.519Z,5.80
2019-04-27T21:36:32.866Z,6.20
2019-04-27T21:39:01.545Z,6.30
2019-04-27T21:41:31.198Z,6.50
2019-04-27T21:44:01.294Z,6.70
2019-04-27T21:46:31.390Z,6.00
2019-04-27T21:48:59.754Z,6.50
2019-04-27T21:51:28.134Z,5.80
2019-04-27T21:54:09.867Z,5.30
2019-04-27T21:56:38.264Z,6.30
2019-04-27T21:59:06.626Z,5.40
2019-04-27T22:01:35.167Z,6.30
2019-04-27T22:04:03.894Z,6.00
2019-04-27T22:06:32.270Z,5.90
2019-04-27T22:09:01.306Z,6.10
2019-04-27T22:11:31.766Z,6.70
2019-04-27T22:14:01.320Z,6.30
2019-04-27T22:16:31.447Z,6.30
2019-04-27T22:19:01.790Z,6.10
2019-04-27T22:21:31.571Z,6.10
2019-04-27T22:24:01.692Z,5.60
2019-04-27T22:26:31.463Z,5.60
2019-04-27T22:29:01.500Z,5.60
2019-04-27T22:31:31.329Z,5.80
2019-04-27T22:34:01.683Z,5.60
2019-04-27T22:36:29.761Z,6.10
2019-04-27T22:39:01.461Z,6.40
2019-04-27T22:41:31.587Z,6.90
2019-04-27T22:44:11.522Z,6.60
2019-04-27T22:46:41.568Z,6.20
2019-04-27T22:49:10.936Z,5.60
2019-04-27T22:51:41.158Z,5.60
2019-04-27T22:54:09.414Z,5.90
2019-04-27T22:56:38.960Z,6.20
2019-04-27T22:59:14.483Z,5.80
2019-04-27T23:02:01.326Z,5.70
2019-04-27T23:04:32.566Z,5.60
2019-04-27T23:07:02.734Z,5.50
2019-04-27T23:09:31.164Z,5.20
2019-04-27T23:11:59.543Z,5.40
2019-04-27T23:14:27.898Z,5.50
2019-04-27T23:17:13.765Z,6.20
2019-04-27T23:19:42.809Z,5.70
2019-04-27T23:22:11.187Z,6.10
2019-04-27T23:24:41.363Z,6.10
2019-04-27T23:27:11.062Z,6.20
2019-04-27T23:29:41.666Z,6.50
2019-04-27T23:32:21.437Z,5.90
2019-04-27T23:34:51.336Z,5.50
2019-04-27T23:37:19.785Z,5.50
2019-04-27T23:39:48.145Z,6.00
2019-04-27T23:42:16.506Z,6.00
2019-04-27T23:44:44.888Z,5.60
2019-04-27T23:47:13.252Z,5.70
2019-04-27T23:49:41.631Z,5.30
2019-04-27T23:52:14.589Z,5.30
2019-04-27T23:54:43.007Z,5.50
2019-04-27T23:57:11.791Z,5.30
2019-04-27T23:59:41.654Z,5.50
